Time;durP1;ratioP1;P1;durP2;ratioP2;P2;SDS_P1;SDS_P2;PMS_P1;PMS_P2;Temp;Humidity;BMP_temperature;BMP_pressure;BME280_temperature;BME280_humidity;BME280_pressure;Samples;Min_cycle;Max_cycle;Signal;HPM_P1;HPM_P2
2021/06/15 00:00:18;;;;;;;12.52;5.43;;;;;12.20;101107.00;;;;5048190;28;20389;-74
2021/06/15 00:02:45;;;;;;;16.55;5.68;;;;;12.20;101085.00;;;;5048496;28;20446;-73
2021/06/15 00:05:13;;;;;;;13.13;6.43;;;;;12.20;101107.00;;;;5048212;28;20120;-76
2021/06/15 00:07:40;;;;;;;8.75;4.80;;;;;12.20;101089.00;;;;5048006;28;20455;-76
2021/06/15 00:10:15;;;;;;;9.13;5.07;;;;;12.20;101092.00;;;;5048598;28;20076;-73
2021/06/15 00:12:42;;;;;;;12.98;5.68;;;;;12.20;101088.00;;;;5048469;28;20033;-75
2021/06/15 00:15:10;;;;;;;20.48;5.57;;;;;12.00;101105.00;;;;5048096;28;20032;-74
2021/06/15 00:17:37;;;;;;;9.02;5.15;;;;;12.10;101113.00;;;;5048352;28;20028;-75
2021/06/15 00:20:05;;;;;;;14.48;4.95;;;;;12.00;101094.00;;;;5048311;28;20067;-74
2021/06/15 00:22:31;;;;;;;17.92;4.70;;;;;12.00;101103.00;;;;5048118;28;20116;-76
2021/06/15 00:24:58;;;;;;;10.45;4.90;;;;;11.90;101093.00;;;;5047904;28;20021;-77
2021/06/15 00:27:24;;;;;;;10.23;5.13;;;;;11.90;101107.00;;;;5047596;28;20035;-76
2021/06/15 00:29:51;;;;;;;11.27;4.97;;;;;11.90;101102.00;;;;5046766;28;20033;-73
2021/06/15 00:32:18;;;;;;;8.50;4.60;;;;;11.80;101117.00;;;;5048419;28;20083;-77
2021/06/15 00:34:45;;;;;;;10.30;4.60;;;;;11.80;101113.00;;;;5048163;28;20040;-77
2021/06/15 00:37:12;;;;;;;8.50;4.82;;;;;11.70;101105.00;;;;5044456;28;20025;-76
2021/06/15 00:39:39;;;;;;;8.43;4.85;;;;;11.80;101088.00;;;;5046339;28;20500;-76
2021/06/15 00:42:06;;;;;;;7.22;4.80;;;;;11.80;101105.00;;;;5045063;28;20412;-75
2021/06/15 00:44:34;;;;;;;12.88;4.80;;;;;11.80;101095.00;;;;5046565;28;20039;-74
2021/06/15 00:47:01;;;;;;;10.93;4.65;;;;;11.60;101119.00;;;;5047210;28;20154;-75
2021/06/15 00:49:32;;;;;;;12.48;4.70;;;;;11.60;101111.00;;;;5047534;28;20037;-74
2021/06/15 00:51:59;;;;;;;10.07;5.00;;;;;11.70;101127.00;;;;5047556;28;20037;-74
2021/06/15 00:54:26;;;;;;;10.25;4.80;;;;;11.70;101092.00;;;;5045793;28;20048;-73
2021/06/15 00:56:52;;;;;;;17.30;5.47;;;;;11.60;101106.00;;;;5047400;28;20028;-73
2021/06/15 00:59:20;;;;;;;13.95;4.97;;;;;11.60;101103.00;;;;5047000;28;20403;-73
2021/06/15 01:01:46;;;;;;;12.50;5.03;;;;;11.60;101117.00;;;;5047844;28;20029;-76
2021/06/15 01:04:14;;;;;;;11.75;4.88;;;;;11.60;101112.00;;;;5047422;28;20373;-75
2021/06/15 01:06:55;;;;;;;8.25;5.00;;;;;11.50;101130.00;;;;5047298;28;20068;-75
2021/06/15 01:09:40;;;;;;;9.25;4.55;;;;;11.50;101134.00;;;;5046800;28;20477;-76
2021/06/15 01:12:31;;;;;;;9.13;4.88;;;;;11.50;101114.00;;;;5047096;28;20037;-73
2021/06/15 01:15:15;;;;;;;10.88;5.40;;;;;11.50;101136.00;;;;5045608;28;20028;-74
2021/06/15 01:17:59;;;;;;;9.32;5.07;;;;;11.50;101125.00;;;;5047030;28;20071;-75
2021/06/15 01:20:27;;;;;;;12.40;5.03;;;;;11.50;101127.00;;;;5046684;28;20031;-72
2021/06/15 01:23:31;;;;;;;11.73;5.07;;;;;11.50;101136.00;;;;5046941;28;20083;-74
2021/06/15 01:25:58;;;;;;;9.43;6.20;;;;;11.50;101123.00;;;;5047234;28;20603;-75
2021/06/15 01:28:48;;;;;;;11.35;6.07;;;;;11.50;101129.00;;;;5047209;28;20037;-74
2021/06/15 01:31:27;;;;;;;15.52;6.75;;;;;11.50;101129.00;;;;5046587;28;20405;-75
2021/06/15 01:34:04;;;;;;;12.27;7.68;;;;;11.50;101131.00;;;;5046789;28;20028;-75
2021/06/15 01:36:41;;;;;;;13.23;6.47;;;;;11.50;101141.00;;;;5047111;28;20037;-74
2021/06/15 01:39:18;;;;;;;8.43;4.45;;;;;11.40;101164.00;;;;5047276;28;20195;-76
2021/06/15 01:41:55;;;;;;;11.40;6.32;;;;;11.40;101155.00;;;;5046686;28;20029;-75
2021/06/15 01:44:23;;;;;;;9.20;6.47;;;;;11.40;101161.00;;;;5046903;28;20040;-76
2021/06/15 01:47:04;;;;;;;10.00;5.40;;;;;11.30;101155.00;;;;5045608;28;20107;-74
2021/06/15 01:49:40;;;;;;;10.87;5.50;;;;;11.30;101154.00;;;;5046825;28;20033;-75
2021/06/15 01:52:11;;;;;;;13.07;5.95;;;;;11.30;101164.00;;;;5047289;28;20279;-78
2021/06/15 01:54:41;;;;;;;12.00;6.85;;;;;11.30;101164.00;;;;5046965;28;20036;-76
2021/06/15 01:57:11;;;;;;;15.70;5.95;;;;;11.30;101148.00;;;;5046414;28;20041;-73
2021/06/15 01:59:43;;;;;;;11.60;6.47;;;;;11.30;101152.00;;;;5045413;28;20408;-77
2021/06/15 02:02:10;;;;;;;17.05;6.18;;;;;11.30;101145.00;;;;5046365;28;20025;-73
2021/06/15 02:04:42;;;;;;;11.25;6.13;;;;;11.30;101148.00;;;;5046912;28;20099;-75
2021/06/15 02:07:12;;;;;;;8.90;5.90;;;;;11.20;101164.00;;;;5047074;28;20060;-75
2021/06/15 02:09:41;;;;;;;12.48;6.07;;;;;11.10;101157.00;;;;5046181;28;20110;-78
2021/06/15 02:12:08;;;;;;;9.90;6.07;;;;;11.10;101150.00;;;;5050894;28;20044;-75
2021/06/15 02:14:37;;;;;;;10.25;6.05;;;;;11.00;101139.00;;;;5049859;28;20095;-74
2021/06/15 02:17:06;;;;;;;13.20;6.60;;;;;11.00;101149.00;;;;5050515;28;20037;-73
2021/06/15 02:19:34;;;;;;;16.48;7.38;;;;;11.00;101160.00;;;;5051497;28;20027;-75
2021/06/15 02:22:10;;;;;;;19.13;11.13;;;;;10.90;101163.00;;;;5049947;28;20037;-74
2021/06/15 02:24:52;;;;;;;15.20;8.38;;;;;11.00;101155.00;;;;5050638;28;20116;-72
2021/06/15 02:27:21;;;;;;;13.05;8.88;;;;;11.00;101161.00;;;;5050379;28;20476;-75
2021/06/15 02:29:48;;;;;;;19.23;8.23;;;;;11.00;101156.00;;;;5049909;28;20055;-76
2021/06/15 02:32:21;;;;;;;12.77;6.85;;;;;11.00;101152.00;;;;5049997;28;20051;-77
2021/06/15 02:34:50;;;;;;;11.00;7.38;;;;;10.90;101161.00;;;;5048811;28;20033;-75
2021/06/15 02:37:24;;;;;;;14.20;7.30;;;;;10.90;101163.00;;;;5050056;28;20032;-73
2021/06/15 02:39:51;;;;;;;19.63;6.75;;;;;10.90;101152.00;;;;5050536;28;20107;-73
2021/06/15 02:42:20;;;;;;;12.88;7.47;;;;;10.90;101167.00;;;;5050598;28;20499;-78
2021/06/15 02:44:49;;;;;;;19.83;6.93;;;;;10.90;101160.00;;;;5050122;28;20033;-77
2021/06/15 02:47:16;;;;;;;11.98;7.40;;;;;10.80;101171.00;;;;5049901;28;20820;-75
2021/06/15 02:49:58;;;;;;;16.15;7.20;;;;;10.80;101163.00;;;;5049919;28;20027;-77
2021/06/15 02:52:30;;;;;;;12.05;6.82;;;;;10.80;101164.00;;;;5049820;28;20136;-77
2021/06/15 02:55:31;;;;;;;12.85;7.35;;;;;10.80;101160.00;;;;5049705;28;20032;-78
2021/06/15 02:57:58;;;;;;;11.60;7.07;;;;;10.80;101142.00;;;;5050061;28;20028;-75
2021/06/15 03:00:24;;;;;;;13.93;8.52;;;;;10.80;101134.00;;;;5049667;28;20404;-77
2021/06/15 03:02:51;;;;;;;20.60;8.48;;;;;10.80;101146.00;;;;5049232;28;20139;-77
2021/06/15 03:05:17;;;;;;;9.73;6.78;;;;;10.70;101140.00;;;;5049912;28;20094;-75
2021/06/15 03:07:47;;;;;;;15.80;6.55;;;;;10.70;101139.00;;;;5050223;28;20025;-76
2021/06/15 03:10:14;;;;;;;11.43;6.65;;;;;10.60;101156.00;;;;5049709;28;20071;-75
2021/06/15 03:13:15;;;;;;;12.60;6.70;;;;;10.70;101163.00;;;;5049693;28;20718;-76
2021/06/15 03:15:42;;;;;;;15.10;7.70;;;;;10.70;101153.00;;;;5038441;28;20120;-74
2021/06/15 03:18:21;;;;;;;10.80;6.72;;;;;10.70;101151.00;;;;5049040;28;20025;-76
2021/06/15 03:20:49;;;;;;;9.32;6.80;;;;;10.70;101153.00;;;;5048374;28;20091;-76
2021/06/15 03:23:22;;;;;;;20.10;7.75;;;;;10.70;101156.00;;;;5048635;28;20032;-76
2021/06/15 03:25:52;;;;;;;12.98;6.70;;;;;10.60;101150.00;;;;5049313;28;20052;-77
2021/06/15 03:28:29;;;;;;;10.93;5.97;;;;;10.60;101156.00;;;;5049054;28;20083;-77
2021/06/15 03:30:57;;;;;;;7.47;5.45;;;;;10.60;101158.00;;;;5049230;28;20051;-78
2021/06/15 03:33:24;;;;;;;13.65;5.13;;;;;10.60;101147.00;;;;5049252;28;20044;-74
2021/06/15 03:35:59;;;;;;;7.97;4.28;;;;;10.50;101160.00;;;;5049667;28;20037;-74
2021/06/15 03:38:33;;;;;;;9.38;6.40;;;;;10.40;101135.00;;;;5049000;28;20060;-76
2021/06/15 03:41:01;;;;;;;11.27;6.32;;;;;10.30;101139.00;;;;5049106;28;20025;-74
2021/06/15 03:43:30;;;;;;;16.02;9.82;;;;;10.30;101154.00;;;;5047194;28;20587;-75
2021/06/15 03:46:09;;;;;;;17.95;10.82;;;;;10.30;101162.00;;;;5049094;28;20025;-75
2021/06/15 03:48:43;;;;;;;15.93;10.50;;;;;10.40;101147.00;;;;5049094;28;20064;-77
2021/06/15 03:51:18;;;;;;;16.40;11.35;;;;;10.40;101164.00;;;;5048489;28;20617;-75
2021/06/15 03:53:46;;;;;;;16.90;10.80;;;;;10.40;101153.00;;;;5048417;28;20063;-73
2021/06/15 03:56:14;;;;;;;15.10;10.45;;;;;10.30;101152.00;;;;5048814;28;20431;-74
2021/06/15 03:58:41;;;;;;;18.92;11.23;;;;;10.30;101157.00;;;;5048986;28;20155;-73
2021/06/15 04:01:12;;;;;;;12.77;9.02;;;;;10.30;101146.00;;;;5049471;28;20033;-74
2021/06/15 04:03:40;;;;;;;9.38;7.15;;;;;10.30;101138.00;;;;5048645;28;20037;-76
2021/06/15 04:06:09;;;;;;;19.05;7.78;;;;;10.30;101142.00;;;;5048153;28;20032;-75
2021/06/15 04:08:37;;;;;;;15.25;10.00;;;;;10.20;101156.00;;;;5048712;28;20122;-78
2021/06/15 04:11:06;;;;;;;20.08;10.88;;;;;10.20;101146.00;;;;5048516;28;20032;-77
2021/06/15 04:13:34;;;;;;;14.55;9.60;;;;;10.30;101164.00;;;;5048221;28;20044;-77
2021/06/15 04:16:03;;;;;;;11.73;9.40;;;;;10.30;101159.00;;;;5048453;28;20500;-76
2021/06/15 04:18:31;;;;;;;19.10;11.63;;;;;10.20;101153.00;;;;5048167;28;20607;-75
2021/06/15 04:21:03;;;;;;;17.17;11.18;;;;;10.20;101141.00;;;;5047565;28;20507;-76
2021/06/15 04:23:59;;;;;;;12.77;10.23;;;;;10.10;101153.00;;;;5048744;28;20028;-74
2021/06/15 04:26:25;;;;;;;15.75;9.35;;;;;10.10;101163.00;;;;5046239;28;20037;-77
2021/06/15 04:28:52;;;;;;;12.15;9.05;;;;;10.20;101164.00;;;;5048631;28;20036;-76
2021/06/15 04:31:22;;;;;;;13.25;9.35;;;;;10.10;101149.00;;;;5047870;28;20021;-76
2021/06/15 04:33:52;;;;;;;12.50;8.55;;;;;10.00;101155.00;;;;5047483;28;20099;-75
2021/06/15 04:36:19;;;;;;;16.45;8.23;;;;;10.10;101144.00;;;;5047984;28;20397;-74
2021/06/15 04:39:16;;;;;;;16.55;8.50;;;;;10.10;101150.00;;;;5047666;28;20025;-76
2021/06/15 04:41:50;;;;;;;14.07;8.60;;;;;10.00;101142.00;;;;5047484;28;20404;-76
2021/06/15 04:44:29;;;;;;;13.10;8.55;;;;;10.00;101147.00;;;;5047767;28;20396;-75
2021/06/15 04:46:58;;;;;;;15.60;8.38;;;;;10.00;101155.00;;;;5047484;28;20140;-77
2021/06/15 04:49:56;;;;;;;8.52;6.72;;;;;10.00;101155.00;;;;5048196;28;20108;-74
2021/06/15 04:52:27;;;;;;;10.25;6.30;;;;;10.00;101150.00;;;;5046267;28;20045;-76
2021/06/15 04:54:56;;;;;;;11.30;8.48;;;;;10.00;101153.00;;;;5047415;28;20033;-75
2021/06/15 04:57:29;;;;;;;13.27;8.70;;;;;9.90;101153.00;;;;5047500;28;20108;-74
2021/06/15 05:00:02;;;;;;;10.93;7.55;;;;;10.00;101152.00;;;;5047371;28;20565;-78
2021/06/15 05:02:29;;;;;;;10.98;6.97;;;;;10.00;101154.00;;;;5046448;28;20036;-73
2021/06/15 05:04:56;;;;;;;11.20;7.65;;;;;10.00;101161.00;;;;5047576;28;20044;-74
2021/06/15 05:07:24;;;;;;;10.52;7.45;;;;;10.00;101148.00;;;;5047244;28;20039;-74
2021/06/15 05:09:56;;;;;;;13.85;8.25;;;;;9.90;101155.00;;;;5047426;28;20040;-74
2021/06/15 05:12:25;;;;;;;12.25;7.75;;;;;10.00;101152.00;;;;5047245;28;20035;-73
2021/06/15 05:14:52;;;;;;;16.52;7.38;;;;;10.00;101144.00;;;;5047563;28;20492;-74
2021/06/15 05:17:24;;;;;;;13.10;7.78;;;;;9.80;101130.00;;;;5047594;28;20044;-77
2021/06/15 05:19:50;;;;;;;15.20;7.75;;;;;9.80;101140.00;;;;5047114;28;20021;-73
2021/06/15 05:22:30;;;;;;;16.98;6.90;;;;;9.90;101137.00;;;;5047394;28;20041;-76
2021/06/15 05:24:59;;;;;;;11.43;6.55;;;;;9.90;101129.00;;;;5046980;28;20056;-76
2021/06/15 05:27:28;;;;;;;11.07;6.43;;;;;9.80;101111.00;;;;5046675;28;20057;-76
2021/06/15 05:29:54;;;;;;;10.80;6.70;;;;;9.80;101105.00;;;;5047240;28;20671;-77
2021/06/15 05:32:21;;;;;;;9.02;6.18;;;;;9.80;101115.00;;;;5046835;28;20032;-76
2021/06/15 05:34:48;;;;;;;13.80;7.00;;;;;9.70;101130.00;;;;5047061;28;20036;-77
2021/06/15 05:37:15;;;;;;;9.25;6.10;;;;;9.80;101115.00;;;;5045421;28;20040;-75
2021/06/15 05:39:42;;;;;;;12.70;7.47;;;;;9.80;101110.00;;;;5046922;28;20071;-77
2021/06/15 05:42:09;;;;;;;8.45;7.07;;;;;9.80;101116.00;;;;5046800;28;20032;-75
2021/06/15 05:44:36;;;;;;;14.98;6.95;;;;;9.80;101117.00;;;;5047123;28;20484;-77
2021/06/15 05:47:03;;;;;;;12.60;7.10;;;;;9.70;101113.00;;;;5046830;28;20127;-73
2021/06/15 05:49:30;;;;;;;13.35;7.80;;;;;9.80;101105.00;;;;5046773;28;20036;-79
2021/06/15 05:52:03;;;;;;;12.13;6.93;;;;;9.80;101110.00;;;;5046507;28;20040;-75
2021/06/15 05:54:30;;;;;;;13.75;6.90;;;;;9.80;101119.00;;;;5046571;28;20490;-75
2021/06/15 05:56:57;;;;;;;14.40;7.57;;;;;9.80;101116.00;;;;5046220;28;20021;-78
2021/06/15 05:59:24;;;;;;;12.35;6.38;;;;;9.70;101116.00;;;;5046543;28;20503;-75
2021/06/15 06:01:51;;;;;;;9.45;6.65;;;;;9.60;101109.00;;;;5046167;28;20412;-76
2021/06/15 06:04:30;;;;;;;13.95;6.93;;;;;9.70;101094.00;;;;5044927;28;20124;-76
2021/06/15 06:09:42;;;;;;;18.13;11.52;;;;;9.70;101094.00;;;;5047160;28;20412;-75
2021/06/15 06:12:10;;;;;;;18.35;10.70;;;;;9.70;101089.00;;;;5046291;28;20465;-74
2021/06/15 06:14:37;;;;;;;15.35;11.30;;;;;9.70;101092.00;;;;5046833;28;20075;-76
2021/06/15 06:17:07;;;;;;;18.90;12.70;;;;;9.80;101092.00;;;;5046399;28;20029;-76
2021/06/15 06:19:33;;;;;;;20.65;13.23;;;;;9.80;101096.00;;;;5046197;28;20076;-76
2021/06/15 06:22:00;;;;;;;18.77;12.85;;;;;9.60;101111.00;;;;5046227;28;20029;-77
2021/06/15 06:24:27;;;;;;;15.27;11.23;;;;;9.60;101116.00;;;;5046758;28;20025;-75
2021/06/15 06:26:54;;;;;;;18.08;10.90;;;;;9.70;101120.00;;;;5046197;28;20028;-73
2021/06/15 06:29:22;;;;;;;20.08;11.70;;;;;9.60;101108.00;;;;5045914;28;20542;-73
2021/06/15 06:31:49;;;;;;;17.02;10.43;;;;;9.60;101128.00;;;;5046522;28;20064;-75
2021/06/15 06:34:15;;;;;;;17.10;10.77;;;;;9.60;101124.00;;;;5046613;28;20502;-72
2021/06/15 06:36:42;;;;;;;14.68;10.27;;;;;9.50;101116.00;;;;5045529;28;20028;-77
2021/06/15 06:39:09;;;;;;;15.50;10.35;;;;;9.50;101101.00;;;;5044888;28;20400;-74
2021/06/15 06:41:37;;;;;;;16.83;10.77;;;;;9.50;101091.00;;;;5044140;28;20575;-75
2021/06/15 06:44:04;;;;;;;12.82;9.20;;;;;9.40;101094.00;;;;5046095;28;20079;-75
2021/06/15 06:46:31;;;;;;;18.35;9.75;;;;;9.40;101100.00;;;;5045783;28;20053;-76
2021/06/15 06:48:58;;;;;;;18.98;9.60;;;;;9.40;101109.00;;;;5046145;28;20033;-73
2021/06/15 06:51:25;;;;;;;18.55;10.18;;;;;9.50;101105.00;;;;5045970;28;20463;-77
2021/06/15 06:53:52;;;;;;;19.85;10.80;;;;;9.40;101114.00;;;;5046277;28;20039;-75
2021/06/15 06:56:19;;;;;;;15.88;9.70;;;;;9.30;101106.00;;;;5047017;28;20567;-74
2021/06/15 06:58:47;;;;;;;11.55;8.85;;;;;9.50;101082.00;;;;5049621;28;20029;-76
2021/06/15 07:01:13;;;;;;;12.73;8.88;;;;;9.40;101087.00;;;;5049866;28;20025;-74
2021/06/15 07:03:40;;;;;;;14.25;8.68;;;;;9.20;101096.00;;;;5049599;28;20029;-76
2021/06/15 07:06:06;;;;;;;14.00;8.55;;;;;9.20;101081.00;;;;5048356;28;20032;-74
2021/06/15 07:08:33;;;;;;;16.23;8.20;;;;;9.10;101088.00;;;;5049588;28;20095;-73
2021/06/15 07:11:00;;;;;;;12.93;7.40;;;;;9.20;101102.00;;;;5049646;28;20052;-77
2021/06/15 07:13:27;;;;;;;17.02;10.02;;;;;9.30;101084.00;;;;5049269;28;20035;-76
2021/06/15 07:15:54;;;;;;;15.93;9.52;;;;;9.20;101086.00;;;;5049512;28;20041;-74
2021/06/15 07:18:20;;;;;;;12.52;9.85;;;;;9.10;101100.00;;;;5049321;28;20033;-74
2021/06/15 07:20:47;;;;;;;13.77;8.75;;;;;9.20;101082.00;;;;5049071;28;20037;-74
2021/06/15 07:23:14;;;;;;;10.50;8.85;;;;;9.10;101112.00;;;;5049733;28;20033;-74
2021/06/15 07:25:41;;;;;;;12.75;8.90;;;;;9.10;101100.00;;;;5049476;28;20025;-76
2021/06/15 07:28:08;;;;;;;11.00;8.45;;;;;9.20;101083.00;;;;5049522;28;20072;-74
2021/06/15 07:30:35;;;;;;;13.75;8.50;;;;;9.10;101096.00;;;;5049735;28;20044;-74
2021/06/15 07:33:01;;;;;;;13.90;8.43;;;;;9.10;101100.00;;;;5049233;28;20111;-72
2021/06/15 07:35:29;;;;;;;13.10;9.10;;;;;9.10;101089.00;;;;5049127;28;20036;-73
2021/06/15 07:37:57;;;;;;;19.10;10.20;;;;;9.20;101075.00;;;;5048883;28;20040;-74
2021/06/15 07:40:24;;;;;;;11.48;8.60;;;;;9.20;101096.00;;;;5049303;28;20089;-76
2021/06/15 07:42:52;;;;;;;12.98;8.70;;;;;9.20;101076.00;;;;5048466;28;20029;-75
2021/06/15 07:45:18;;;;;;;17.05;9.60;;;;;9.20;101073.00;;;;5048730;28;20396;-76
2021/06/15 07:47:45;;;;;;;9.85;8.35;;;;;9.30;101081.00;;;;5048598;28;20052;-76
2021/06/15 07:50:14;;;;;;;15.40;9.68;;;;;9.20;101070.00;;;;5049232;28;20036;-76
2021/06/15 07:52:41;;;;;;;14.43;7.90;;;;;9.20;101086.00;;;;5048920;28;20535;-77
2021/06/15 07:55:09;;;;;;;9.52;7.45;;;;;9.10;101100.00;;;;5048336;28;20107;-76
2021/06/15 07:57:36;;;;;;;10.82;7.78;;;;;9.00;101093.00;;;;5047969;28;20032;-76
2021/06/15 08:00:04;;;;;;;13.10;8.38;;;;;9.10;101099.00;;;;5048550;28;20078;-75
2021/06/15 08:02:31;;;;;;;11.18;7.80;;;;;9.10;101092.00;;;;5048727;28;20079;-74
2021/06/15 08:04:57;;;;;;;16.83;8.27;;;;;9.10;101083.00;;;;5048838;28;20024;-73
2021/06/15 08:07:24;;;;;;;20.67;8.52;;;;;9.10;101084.00;;;;5048102;28;20068;-75
2021/06/15 08:09:50;;;;;;;14.30;8.77;;;;;9.00;101075.00;;;;5048439;28;20033;-76
2021/06/15 08:12:20;;;;;;;11.43;7.80;;;;;9.00;101077.00;;;;5048510;28;20505;-75
2021/06/15 08:14:47;;;;;;;19.83;7.82;;;;;9.10;101084.00;;;;5048821;28;20389;-74
2021/06/15 08:17:14;;;;;;;85.80;10.02;;;;;9.10;101068.00;;;;5048722;28;20138;-75
2021/06/15 08:19:41;;;;;;;68.78;10.27;;;;;9.00;101057.00;;;;5049251;28;20025;-75
2021/06/15 08:22:08;;;;;;;65.72;9.18;;;;;9.10;101072.00;;;;5048314;28;20040;-73
2021/06/15 08:24:34;;;;;;;102.75;10.98;;;;;9.00;101069.00;;;;5047964;28;20024;-76
2021/06/15 08:27:01;;;;;;;17.95;8.00;;;;;8.90;101067.00;;;;5048206;28;20040;-74
2021/06/15 08:29:27;;;;;;;110.32;11.48;;;;;8.80;101096.00;;;;5047742;28;20044;-72
2021/06/15 08:31:54;;;;;;;66.90;11.88;;;;;8.90;101101.00;;;;5047662;28;20071;-76
2021/06/15 08:34:21;;;;;;;13.02;9.32;;;;;8.90;101103.00;;;;5047977;28;20033;-73
2021/06/15 08:36:48;;;;;;;13.98;9.20;;;;;8.90;101090.00;;;;5047747;28;20021;-72
2021/06/15 08:39:14;;;;;;;13.65;9.70;;;;;9.00;101092.00;;;;5047697;28;20048;-74
2021/06/15 08:41:41;;;;;;;13.77;9.73;;;;;9.00;101088.00;;;;5048155;28;20029;-77
2021/06/15 08:44:08;;;;;;;12.15;9.40;;;;;9.00;101106.00;;;;5048453;28;20025;-73
2021/06/15 08:46:35;;;;;;;15.05;10.85;;;;;9.00;101090.00;;;;5047465;28;20186;-75
2021/06/15 08:49:05;;;;;;;12.25;9.38;;;;;9.00;101082.00;;;;5048174;28;20127;-74
2021/06/15 08:51:31;;;;;;;17.00;11.15;;;;;8.90;101095.00;;;;5047210;28;20591;-74
2021/06/15 08:54:04;;;;;;;15.55;9.25;;;;;9.00;101107.00;;;;5047571;28;20467;-72
2021/06/15 08:56:32;;;;;;;21.23;13.88;;;;;9.10;101114.00;;;;5047504;28;20526;-73
2021/06/15 08:59:07;;;;;;;62.72;13.20;;;;;9.10;101102.00;;;;5047422;28;20040;-74
2021/06/15 09:01:34;;;;;;;62.67;10.18;;;;;8.80;101115.00;;;;5047521;28;20081;-73
2021/06/15 09:04:01;;;;;;;14.27;10.60;;;;;8.90;101116.00;;;;5047223;28;20039;-74
2021/06/15 09:06:28;;;;;;;20.67;11.55;;;;;8.80;101109.00;;;;5045777;28;20033;-74
2021/06/15 09:08:57;;;;;;;18.65;13.32;;;;;8.80;101121.00;;;;5047360;28;20037;-76
2021/06/15 09:11:25;;;;;;;11.63;9.27;;;;;8.70;101119.00;;;;5047965;28;20071;-73
2021/06/15 09:13:52;;;;;;;14.90;9.45;;;;;8.70;101121.00;;;;5047199;28;20503;-74
2021/06/15 09:16:28;;;;;;;13.77;10.27;;;;;8.70;101130.00;;;;5047112;28;20174;-72
2021/06/15 09:18:58;;;;;;;13.07;9.63;;;;;8.80;101126.00;;;;5045903;28;20029;-77
2021/06/15 09:21:48;;;;;;;16.77;9.27;;;;;8.80;101142.00;;;;5047334;28;20407;-75
2021/06/15 09:24:26;;;;;;;12.52;8.27;;;;;8.80;101161.00;;;;5047225;28;20017;-75
2021/06/15 09:27:08;;;;;;;13.18;8.85;;;;;8.80;101160.00;;;;5046655;28;20025;-72
2021/06/15 09:29:53;;;;;;;15.73;8.60;;;;;8.80;101132.00;;;;5047176;28;20025;-75
2021/06/15 09:32:22;;;;;;;12.73;8.45;;;;;8.60;101138.00;;;;5046929;28;20029;-75
2021/06/15 09:34:52;;;;;;;15.32;9.52;;;;;8.70;101148.00;;;;5046706;28;20179;-75
2021/06/15 09:37:47;;;;;;;12.40;8.32;;;;;8.80;101161.00;;;;5046028;28;20032;-76
2021/06/15 09:40:21;;;;;;;12.63;8.18;;;;;8.70;101162.00;;;;5046096;28;20029;-75
2021/06/15 09:42:59;;;;;;;12.23;8.98;;;;;8.70;101177.00;;;;5046326;28;20423;-76
2021/06/15 09:45:27;;;;;;;16.27;8.65;;;;;8.70;101185.00;;;;5046348;28;20047;-74
2021/06/15 09:48:14;;;;;;;13.90;8.25;;;;;8.70;101170.00;;;;5045793;28;20526;-77
2021/06/15 09:50:42;;;;;;;9.43;8.00;;;;;8.70;101165.00;;;;5046671;28;20080;-76
2021/06/15 09:53:28;;;;;;;16.00;8.73;;;;;8.70;101163.00;;;;5046957;28;20049;-75
2021/06/15 09:56:06;;;;;;;17.65;8.80;;;;;8.70;101175.00;;;;5046745;28;20377;-74
2021/06/15 09:58:59;;;;;;;10.45;7.13;;;;;8.50;101187.00;;;;5047287;28;20025;-74
2021/06/15 10:01:28;;;;;;;10.15;7.68;;;;;8.50;101190.00;;;;5044116;28;20053;-76
2021/06/15 10:04:16;;;;;;;22.15;9.43;;;;;8.60;101199.00;;;;5047111;28;20071;-76
2021/06/15 10:06:45;;;;;;;18.42;10.32;;;;;8.70;101207.00;;;;5046081;28;20108;-75
2021/06/15 10:09:13;;;;;;;22.75;9.18;;;;;8.70;101216.00;;;;5047256;28;20115;-75
2021/06/15 10:11:45;;;;;;;11.63;8.70;;;;;8.60;101211.00;;;;5046624;28;20029;-76
2021/06/15 10:14:12;;;;;;;13.98;7.55;;;;;8.50;101213.00;;;;5046600;28;20119;-76
2021/06/15 10:16:39;;;;;;;11.95;8.23;;;;;8.60;101209.00;;;;5046408;28;20032;-73
2021/06/15 10:19:06;;;;;;;16.42;9.52;;;;;8.70;101222.00;;;;5046641;28;20021;-75
2021/06/15 10:21:34;;;;;;;19.77;9.48;;;;;8.80;101202.00;;;;5046167;28;20037;-74
2021/06/15 10:24:07;;;;;;;29.67;10.27;;;;;8.80;101225.00;;;;5046284;28;20071;-74
2021/06/15 10:26:34;;;;;;;50.38;14.68;;;;;8.90;101191.00;;;;5046789;28;20033;-73
2021/06/15 10:29:09;;;;;;;31.75;13.00;;;;;8.90;101223.00;;;;5047241;28;20400;-75
2021/06/15 10:31:38;;;;;;;30.33;10.77;;;;;8.80;101198.00;;;;5049640;28;20400;-77
2021/06/15 10:34:05;;;;;;;46.30;13.38;;;;;8.90;101202.00;;;;5050203;28;20032;-76
2021/06/15 10:36:46;;;;;;;60.70;12.95;;;;;8.90;101205.00;;;;5049602;28;20021;-74
2021/06/15 10:39:31;;;;;;;;;;;;;8.90;101228.00;;;;5050483;28;20500;-75
2021/06/15 10:42:14;;;;;;;33.95;12.90;;;;;9.00;101204.00;;;;5049788;28;19916;-75
2021/06/15 10:44:44;;;;;;;59.17;12.65;;;;;9.00;101199.00;;;;5049325;28;20031;-76
2021/06/15 10:47:14;;;;;;;93.65;12.48;;;;;9.00;101219.00;;;;5049728;28;20088;-74
2021/06/15 10:50:01;;;;;;;59.63;14.15;;;;;9.10;101219.00;;;;5049946;28;20079;-77
2021/06/15 10:52:58;;;;;;;105.57;13.15;;;;;9.20;101237.00;;;;5049716;28;20021;-74
2021/06/15 10:55:50;;;;;;;91.95;10.07;;;;;9.20;101241.00;;;;5049864;28;20033;-74
2021/06/15 10:58:33;;;;;;;194.77;12.57;;;;;9.20;101233.00;;;;5049532;28;20025;-75
2021/06/15 11:01:21;;;;;;;65.80;9.18;;;;;9.40;101231.00;;;;5050009;28;20463;-75
2021/06/15 11:03:50;;;;;;;99.90;11.57;;;;;9.60;101225.00;;;;5049450;28;20408;-76
2021/06/15 11:06:39;;;;;;;93.65;11.18;;;;;9.80;101254.00;;;;5049320;28;20488;-74
2021/06/15 11:09:16;;;;;;;71.07;8.40;;;;;9.90;101220.00;;;;5049320;28;20411;-75
2021/06/15 11:11:50;;;;;;;65.55;7.88;;;;;10.40;101184.00;;;;5049922;28;20090;-74
2021/06/15 11:14:20;;;;;;;19.38;6.95;;;;;11.10;101203.00;;;;5049820;28;20047;-75
2021/06/15 11:16:51;;;;;;;12.13;6.75;;;;;11.30;101198.00;;;;5049666;28;20025;-74
2021/06/15 11:19:18;;;;;;;8.48;6.32;;;;;12.00;101212.00;;;;5049848;28;20079;-77
2021/06/15 11:21:45;;;;;;;8.02;5.50;;;;;12.30;101204.00;;;;5049780;28;20029;-75
2021/06/15 11:24:55;;;;;;;14.10;6.25;;;;;13.00;101188.00;;;;5049312;28;20084;-73
2021/06/15 11:27:23;;;;;;;14.98;8.80;;;;;13.00;101182.00;;;;5049174;28;20048;-74
2021/06/15 11:29:52;;;;;;;12.30;5.43;;;;;13.80;101136.00;;;;5049044;28;20438;-77
2021/06/15 11:32:23;;;;;;;21.85;7.70;;;;;15.10;101127.00;;;;5049063;28;20028;-76
2021/06/15 11:34:57;;;;;;;29.67;7.35;;;;;15.90;101121.00;;;;5049060;28;20039;-76
2021/06/15 11:37:34;;;;;;;19.35;6.05;;;;;16.10;101227.00;;;;5048959;28;20230;-75
2021/06/15 11:40:16;;;;;;;6.28;4.57;;;;;13.50;101251.00;;;;5049075;28;20076;-76
2021/06/15 11:42:44;;;;;;;9.00;4.85;;;;;12.50;101267.00;;;;5048162;28;20116;-75
2021/06/15 11:45:18;;;;;;;9.18;5.70;;;;;12.60;101268.00;;;;5048982;28;20071;-77
2021/06/15 11:47:49;;;;;;;10.60;5.10;;;;;12.60;101275.00;;;;5049274;28;20631;-74
2021/06/15 11:50:26;;;;;;;10.30;4.55;;;;;12.70;101269.00;;;;5049416;28;20029;-75
2021/06/15 11:53:09;;;;;;;20.33;6.07;;;;;12.60;101285.00;;;;5048593;28;20558;-77
2021/06/15 11:55:38;;;;;;;10.85;5.40;;;;;12.50;101279.00;;;;5048747;28;20029;-78
2021/06/15 11:58:31;;;;;;;14.52;6.18;;;;;12.60;101276.00;;;;5048572;28;20029;-75
2021/06/15 12:01:10;;;;;;;6.70;4.97;;;;;12.70;101275.00;;;;5046360;28;20045;-77
2021/06/15 12:03:38;;;;;;;11.25;5.68;;;;;13.10;101267.00;;;;5048257;28;20025;-74
2021/06/15 12:06:06;;;;;;;12.85;5.72;;;;;13.10;101297.00;;;;5049025;28;20078;-75
2021/06/15 12:08:35;;;;;;;8.13;5.38;;;;;13.00;101286.00;;;;5048761;28;20033;-76
2021/06/15 12:11:03;;;;;;;8.82;6.20;;;;;13.00;101300.00;;;;5048883;28;20021;-75
2021/06/15 12:13:32;;;;;;;30.38;11.25;;;;;13.10;101306.00;;;;5048997;28;20127;-76
2021/06/15 12:16:09;;;;;;;21.13;11.93;;;;;13.20;101286.00;;;;5047907;28;20060;-77
2021/06/15 12:18:47;;;;;;;24.85;13.25;;;;;13.20;101296.00;;;;5048238;28;20060;-75
2021/06/15 12:21:19;;;;;;;21.65;11.45;;;;;13.40;101302.00;;;;5048882;28;20029;-73
2021/06/15 12:23:54;;;;;;;24.67;15.07;;;;;13.40;101310.00;;;;5048185;28;20129;-71
2021/06/15 12:26:29;;;;;;;23.63;13.60;;;;;13.30;101318.00;;;;5048053;28;20039;-72